sensor_id;sensor_type;location;lat;lon;timestamp;P1;durP1;ratioP1;P2;durP2;ratioP2
44430;SDS011;30135;47.866;-4.222;2023-04-26T00:00:46;6.82;;;2.67;;
44430;SDS011;30135;47.866;-4.222;2023-04-26T00:03:12;4.63;;;1.50;;
44430;SDS011;30135;47.866;-4.222;2023-04-26T00:05:38;12.45;;;3.00;;
44430;SDS011;30135;47.866;-4.222;2023-04-26T00:08:04;8.50;;;2.10;;
44430;SDS011;30135;47.866;-4.222;2023-04-26T00:10:31;15.23;;;2.20;;
44430;SDS011;30135;47.866;-4.222;2023-04-26T00:12:57;9.13;;;2.28;;
44430;SDS011;30135;47.866;-4.222;2023-04-26T00:15:23;10.55;;;2.85;;
44430;SDS011;30135;47.866;-4.222;2023-04-26T00:17:49;11.13;;;2.80;;
44430;SDS011;30135;47.866;-4.222;2023-04-26T00:20:15;7.97;;;2.28;;
44430;SDS011;30135;47.866;-4.222;2023-04-26T00:22:41;10.65;;;1.80;;
44430;SDS011;30135;47.866;-4.222;2023-04-26T00:25:07;6.72;;;2.35;;
44430;SDS011;30135;47.866;-4.222;2023-04-26T00:27:34;7.88;;;2.40;;
44430;SDS011;30135;47.866;-4.222;2023-04-26T00:30:00;7.57;;;2.10;;
44430;SDS011;30135;47.866;-4.222;2023-04-26T00:32:26;6.35;;;1.75;;
44430;SDS011;30135;47.866;-4.222;2023-04-26T00:34:52;9.32;;;2.20;;
44430;SDS011;30135;47.866;-4.222;2023-04-26T00:37:18;5.47;;;2.05;;
44430;SDS011;30135;47.866;-4.222;2023-04-26T00:39:45;7.35;;;2.05;;
44430;SDS011;30135;47.866;-4.222;2023-04-26T00:42:11;4.25;;;1.88;;
44430;SDS011;30135;47.866;-4.222;2023-04-26T00:44:39;7.13;;;2.03;;
44430;SDS011;30135;47.866;-4.222;2023-04-26T00:47:06;4.80;;;2.03;;
44430;SDS011;30135;47.866;-4.222;2023-04-26T00:49:33;5.53;;;1.85;;
44430;SDS011;30135;47.866;-4.222;2023-04-26T00:51:59;19.88;;;2.00;;
44430;SDS011;30135;47.866;-4.222;2023-04-26T00:54:26;4.40;;;1.90;;
44430;SDS011;30135;47.866;-4.222;2023-04-26T00:56:53;6.25;;;2.00;;
44430;SDS011;30135;47.866;-4.222;2023-04-26T00:59:20;2.80;;;1.60;;
44430;SDS011;30135;47.866;-4.222;2023-04-26T01:01:46;6.70;;;1.73;;
44430;SDS011;30135;47.866;-4.222;2023-04-26T01:04:13;3.33;;;1.58;;
44430;SDS011;30135;47.866;-4.222;2023-04-26T01:06:40;3.58;;;1.60;;
44430;SDS011;30135;47.866;-4.222;2023-04-26T01:09:06;6.97;;;2.58;;
44430;SDS011;30135;47.866;-4.222;2023-04-26T01:11:34;8.18;;;1.55;;
44430;SDS011;30135;47.866;-4.222;2023-04-26T01:14:02;4.40;;;1.35;;
44430;SDS011;30135;47.866;-4.222;2023-04-26T01:16:30;7.55;;;1.42;;
44430;SDS011;30135;47.866;-4.222;2023-04-26T01:18:57;5.35;;;2.55;;
44430;SDS011;30135;47.866;-4.222;2023-04-26T01:21:30;6.70;;;1.20;;
44430;SDS011;30135;47.866;-4.222;2023-04-26T01:23:57;6.90;;;1.45;;
44430;SDS011;30135;47.866;-4.222;2023-04-26T01:26:23;11.68;;;2.53;;
44430;SDS011;30135;47.866;-4.222;2023-04-26T01:28:49;8.60;;;1.83;;
44430;SDS011;30135;47.866;-4.222;2023-04-26T01:31:17;7.57;;;1.73;;
44430;SDS011;30135;47.866;-4.222;2023-04-26T01:33:43;3.97;;;2.13;;
44430;SDS011;30135;47.866;-4.222;2023-04-26T01:36:09;5.43;;;1.35;;
44430;SDS011;30135;47.866;-4.222;2023-04-26T01:38:35;3.92;;;1.90;;
44430;SDS011;30135;47.866;-4.222;2023-04-26T01:41:05;2.75;;;1.48;;
44430;SDS011;30135;47.866;-4.222;2023-04-26T01:43:31;4.85;;;1.45;;
44430;SDS011;30135;47.866;-4.222;2023-04-26T01:45:57;6.50;;;1.70;;
44430;SDS011;30135;47.866;-4.222;2023-04-26T01:48:23;11.95;;;1.55;;
44430;SDS011;30135;47.866;-4.222;2023-04-26T01:50:49;4.07;;;1.55;;
44430;SDS011;30135;47.866;-4.222;2023-04-26T01:53:15;6.97;;;1.70;;
44430;SDS011;30135;47.866;-4.222;2023-04-26T01:55:49;4.15;;;2.40;;
44430;SDS011;30135;47.866;-4.222;2023-04-26T01:58:28;5.47;;;1.73;;
44430;SDS011;30135;47.866;-4.222;2023-04-26T02:00:55;6.97;;;1.50;;
44430;SDS011;30135;47.866;-4.222;2023-04-26T02:03:28;5.38;;;1.70;;
44430;SDS011;30135;47.866;-4.222;2023-04-26T02:05:54;3.53;;;1.98;;
44430;SDS011;30135;47.866;-4.222;2023-04-26T02:08:20;7.57;;;1.63;;
44430;SDS011;30135;47.866;-4.222;2023-04-26T02:10:46;3.63;;;1.48;;
44430;SDS011;30135;47.866;-4.222;2023-04-26T02:13:13;7.40;;;1.85;;
44430;SDS011;30135;47.866;-4.222;2023-04-26T02:15:39;4.30;;;1.90;;
44430;SDS011;30135;47.866;-4.222;2023-04-26T02:18:06;7.45;;;1.67;;
44430;SDS011;30135;47.866;-4.222;2023-04-26T02:20:33;4.78;;;2.00;;
44430;SDS011;30135;47.866;-4.222;2023-04-26T02:23:00;8.68;;;2.15;;
44430;SDS011;30135;47.866;-4.222;2023-04-26T02:25:26;8.18;;;2.50;;
44430;SDS011;30135;47.866;-4.222;2023-04-26T02:27:52;6.50;;;2.10;;
44430;SDS011;30135;47.866;-4.222;2023-04-26T02:30:18;9.40;;;1.50;;
44430;SDS011;30135;47.866;-4.222;2023-04-26T02:32:44;8.90;;;1.85;;
44430;SDS011;30135;47.866;-4.222;2023-04-26T02:35:10;4.45;;;1.45;;
44430;SDS011;30135;47.866;-4.222;2023-04-26T02:37:36;5.57;;;1.85;;
44430;SDS011;30135;47.866;-4.222;2023-04-26T02:40:02;3.78;;;1.77;;
44430;SDS011;30135;47.866;-4.222;2023-04-26T02:42:29;10.40;;;1.80;;
44430;SDS011;30135;47.866;-4.222;2023-04-26T02:44:58;3.15;;;1.45;;
44430;SDS011;30135;47.866;-4.222;2023-04-26T02:47:24;6.57;;;1.88;;
44430;SDS011;30135;47.866;-4.222;2023-04-26T02:49:50;3.58;;;1.25;;
44430;SDS011;30135;47.866;-4.222;2023-04-26T02:52:16;4.72;;;1.30;;
44430;SDS011;30135;47.866;-4.222;2023-04-26T02:54:42;4.90;;;1.40;;
44430;SDS011;30135;47.866;-4.222;2023-04-26T02:57:08;2.63;;;1.00;;
44430;SDS011;30135;47.866;-4.222;2023-04-26T02:59:34;3.90;;;1.25;;
44430;SDS011;30135;47.866;-4.222;2023-04-26T03:02:00;2.92;;;1.30;;
44430;SDS011;30135;47.866;-4.222;2023-04-26T03:04:26;4.10;;;1.55;;
44430;SDS011;30135;47.866;-4.222;2023-04-26T03:06:54;2.45;;;1.23;;
44430;SDS011;30135;47.866;-4.222;2023-04-26T03:09:20;1.48;;;0.90;;
44430;SDS011;30135;47.866;-4.222;2023-04-26T03:11:46;6.38;;;1.10;;
44430;SDS011;30135;47.866;-4.222;2023-04-26T03:14:12;2.65;;;1.05;;
44430;SDS011;30135;47.866;-4.222;2023-04-26T03:16:42;1.00;;;0.75;;
44430;SDS011;30135;47.866;-4.222;2023-04-26T03:19:08;1.73;;;1.00;;
44430;SDS011;30135;47.866;-4.222;2023-04-26T03:21:34;2.17;;;0.90;;
44430;SDS011;30135;47.866;-4.222;2023-04-26T03:24:01;2.75;;;1.25;;
44430;SDS011;30135;47.866;-4.222;2023-04-26T03:26:27;2.63;;;1.13;;
44430;SDS011;30135;47.866;-4.222;2023-04-26T03:29:00;1.40;;;0.88;;
44430;SDS011;30135;47.866;-4.222;2023-04-26T03:31:27;2.75;;;0.98;;
44430;SDS011;30135;47.866;-4.222;2023-04-26T03:33:53;7.20;;;0.95;;
44430;SDS011;30135;47.866;-4.222;2023-04-26T03:36:19;2.55;;;1.63;;
44430;SDS011;30135;47.866;-4.222;2023-04-26T03:38:45;6.00;;;1.20;;
44430;SDS011;30135;47.866;-4.222;2023-04-26T03:41:12;4.43;;;1.00;;
44430;SDS011;30135;47.866;-4.222;2023-04-26T03:43:38;2.35;;;1.10;;
44430;SDS011;30135;47.866;-4.222;2023-04-26T03:46:04;2.50;;;1.40;;
44430;SDS011;30135;47.866;-4.222;2023-04-26T03:48:30;3.17;;;1.10;;
44430;SDS011;30135;47.866;-4.222;2023-04-26T03:50:56;5.85;;;1.27;;
44430;SDS011;30135;47.866;-4.222;2023-04-26T03:53:21;1.65;;;0.98;;
44430;SDS011;30135;47.866;-4.222;2023-04-26T03:55:48;3.67;;;1.23;;
44430;SDS011;30135;47.866;-4.222;2023-04-26T03:58:14;1.15;;;0.80;;
44430;SDS011;30135;47.866;-4.222;2023-04-26T04:00:40;1.27;;;0.90;;
44430;SDS011;30135;47.866;-4.222;2023-04-26T04:03:06;2.28;;;1.60;;
44430;SDS011;30135;47.866;-4.222;2023-04-26T04:05:32;1.63;;;0.88;;
44430;SDS011;30135;47.866;-4.222;2023-04-26T04:07:58;1.95;;;1.00;;
44430;SDS011;30135;47.866;-4.222;2023-04-26T04:10:24;4.18;;;1.10;;
44430;SDS011;30135;47.866;-4.222;2023-04-26T04:12:50;2.38;;;1.58;;
44430;SDS011;30135;47.866;-4.222;2023-04-26T04:15:18;3.25;;;1.02;;
44430;SDS011;30135;47.866;-4.222;2023-04-26T04:17:44;3.30;;;1.33;;
44430;SDS011;30135;47.866;-4.222;2023-04-26T04:20:11;2.05;;;1.35;;
44430;SDS011;30135;47.866;-4.222;2023-04-26T04:22:38;1.90;;;1.10;;
44430;SDS011;30135;47.866;-4.222;2023-04-26T04:25:07;1.67;;;1.05;;
44430;SDS011;30135;47.866;-4.222;2023-04-26T04:27:38;5.15;;;1.52;;
44430;SDS011;30135;47.866;-4.222;2023-04-26T04:32:37;5.78;;;1.42;;
44430;SDS011;30135;47.866;-4.222;2023-04-26T04:37:31;4.28;;;1.38;;
44430;SDS011;30135;47.866;-4.222;2023-04-26T04:39:58;1.73;;;1.13;;
44430;SDS011;30135;47.866;-4.222;2023-04-26T04:42:24;2.97;;;1.45;;
44430;SDS011;30135;47.866;-4.222;2023-04-26T04:44:53;1.75;;;1.17;;
44430;SDS011;30135;47.866;-4.222;2023-04-26T04:47:20;1.80;;;1.50;;
44430;SDS011;30135;47.866;-4.222;2023-04-26T04:49:46;2.03;;;1.20;;
44430;SDS011;30135;47.866;-4.222;2023-04-26T04:52:12;4.68;;;1.52;;
44430;SDS011;30135;47.866;-4.222;2023-04-26T04:54:38;2.08;;;1.33;;
44430;SDS011;30135;47.866;-4.222;2023-04-26T04:57:04;4.88;;;1.30;;
44430;SDS011;30135;47.866;-4.222;2023-04-26T04:59:30;2.47;;;1.10;;
44430;SDS011;30135;47.866;-4.222;2023-04-26T05:01:57;3.28;;;1.30;;
44430;SDS011;30135;47.866;-4.222;2023-04-26T05:04:23;2.65;;;1.85;;
44430;SDS011;30135;47.866;-4.222;2023-04-26T05:06:49;2.67;;;1.48;;
44430;SDS011;30135;47.866;-4.222;2023-04-26T05:09:16;2.33;;;1.60;;
44430;SDS011;30135;47.866;-4.222;2023-04-26T05:11:42;5.00;;;1.42;;
44430;SDS011;30135;47.866;-4.222;2023-04-26T05:14:08;2.92;;;1.27;;
44430;SDS011;30135;47.866;-4.222;2023-04-26T05:16:34;3.25;;;1.63;;
44430;SDS011;30135;47.866;-4.222;2023-04-26T05:19:00;3.08;;;1.23;;
44430;SDS011;30135;47.866;-4.222;2023-04-26T05:21:26;4.53;;;1.67;;
44430;SDS011;30135;47.866;-4.222;2023-04-26T05:23:51;1.88;;;1.05;;
44430;SDS011;30135;47.866;-4.222;2023-04-26T05:26:17;4.85;;;1.25;;
44430;SDS011;30135;47.866;-4.222;2023-04-26T05:28:44;4.32;;;1.58;;
44430;SDS011;30135;47.866;-4.222;2023-04-26T05:31:10;4.43;;;1.60;;
44430;SDS011;30135;47.866;-4.222;2023-04-26T05:33:36;3.78;;;1.55;;
44430;SDS011;30135;47.866;-4.222;2023-04-26T05:36:02;4.72;;;1.48;;
44430;SDS011;30135;47.866;-4.222;2023-04-26T05:38:28;2.97;;;1.58;;
44430;SDS011;30135;47.866;-4.222;2023-04-26T05:40:55;5.55;;;1.63;;
44430;SDS011;30135;47.866;-4.222;2023-04-26T05:43:20;3.95;;;2.10;;
44430;SDS011;30135;47.866;-4.222;2023-04-26T05:45:50;3.72;;;1.60;;
44430;SDS011;30135;47.866;-4.222;2023-04-26T05:48:20;5.28;;;2.08;;
44430;SDS011;30135;47.866;-4.222;2023-04-26T05:50:47;4.07;;;2.10;;
44430;SDS011;30135;47.866;-4.222;2023-04-26T05:53:15;4.22;;;1.67;;
44430;SDS011;30135;47.866;-4.222;2023-04-26T05:55:43;3.13;;;1.52;;
44430;SDS011;30135;47.866;-4.222;2023-04-26T05:58:09;3.78;;;1.50;;
44430;SDS011;30135;47.866;-4.222;2023-04-26T06:00:36;4.38;;;1.75;;
44430;SDS011;30135;47.866;-4.222;2023-04-26T06:03:03;2.95;;;1.52;;
44430;SDS011;30135;47.866;-4.222;2023-04-26T06:05:30;3.10;;;1.33;;
44430;SDS011;30135;47.866;-4.222;2023-04-26T06:07:56;8.20;;;2.30;;
44430;SDS011;30135;47.866;-4.222;2023-04-26T06:10:23;6.93;;;2.35;;
44430;SDS011;30135;47.866;-4.222;2023-04-26T06:12:49;3.65;;;1.90;;
44430;SDS011;30135;47.866;-4.222;2023-04-26T06:15:15;6.65;;;2.35;;
44430;SDS011;30135;47.866;-4.222;2023-04-26T06:17:41;6.00;;;2.13;;
44430;SDS011;30135;47.866;-4.222;2023-04-26T06:20:08;3.65;;;2.08;;
44430;SDS011;30135;47.866;-4.222;2023-04-26T06:22:35;7.25;;;2.17;;
44430;SDS011;30135;47.866;-4.222;2023-04-26T06:25:02;4.30;;;2.22;;
44430;SDS011;30135;47.866;-4.222;2023-04-26T06:27:30;4.32;;;1.77;;
44430;SDS011;30135;47.866;-4.222;2023-04-26T06:29:56;8.23;;;2.03;;
44430;SDS011;30135;47.866;-4.222;2023-04-26T06:32:23;8.15;;;1.98;;
44430;SDS011;30135;47.866;-4.222;2023-04-26T06:34:49;4.05;;;1.80;;
44430;SDS011;30135;47.866;-4.222;2023-04-26T06:37:15;4.95;;;1.45;;
44430;SDS011;30135;47.866;-4.222;2023-04-26T06:39:41;3.25;;;1.67;;
44430;SDS011;30135;47.866;-4.222;2023-04-26T06:42:07;3.60;;;1.67;;
44430;SDS011;30135;47.866;-4.222;2023-04-26T06:44:33;8.73;;;1.88;;
44430;SDS011;30135;47.866;-4.222;2023-04-26T06:46:59;6.07;;;2.15;;
44430;SDS011;30135;47.866;-4.222;2023-04-26T06:49:25;5.25;;;1.55;;
44430;SDS011;30135;47.866;-4.222;2023-04-26T06:51:51;3.00;;;1.58;;
44430;SDS011;30135;47.866;-4.222;2023-04-26T06:54:17;9.52;;;1.90;;
44430;SDS011;30135;47.866;-4.222;2023-04-26T06:56:44;5.10;;;2.10;;
44430;SDS011;30135;47.866;-4.222;2023-04-26T06:59:10;2.65;;;1.52;;
44430;SDS011;30135;47.866;-4.222;2023-04-26T07:01:37;2.80;;;1.38;;
44430;SDS011;30135;47.866;-4.222;2023-04-26T07:04:03;5.65;;;1.17;;
44430;SDS011;30135;47.866;-4.222;2023-04-26T07:06:34;2.08;;;1.50;;
44430;SDS011;30135;47.866;-4.222;2023-04-26T07:09:02;1.33;;;1.00;;
44430;SDS011;30135;47.866;-4.222;2023-04-26T07:11:28;3.35;;;1.27;;
44430;SDS011;30135;47.866;-4.222;2023-04-26T07:13:55;2.42;;;1.13;;
44430;SDS011;30135;47.866;-4.222;2023-04-26T07:16:21;3.47;;;0.98;;
44430;SDS011;30135;47.866;-4.222;2023-04-26T07:18:47;2.83;;;1.50;;
44430;SDS011;30135;47.866;-4.222;2023-04-26T07:21:14;3.63;;;1.50;;
44430;SDS011;30135;47.866;-4.222;2023-04-26T07:23:40;3.30;;;0.80;;
44430;SDS011;30135;47.866;-4.222;2023-04-26T07:26:06;4.32;;;1.25;;
44430;SDS011;30135;47.866;-4.222;2023-04-26T07:28:35;4.97;;;0.85;;
44430;SDS011;30135;47.866;-4.222;2023-04-26T07:31:01;4.80;;;1.38;;
44430;SDS011;30135;47.866;-4.222;2023-04-26T07:33:27;3.20;;;0.82;;
44430;SDS011;30135;47.866;-4.222;2023-04-26T07:35:54;4.78;;;0.68;;
44430;SDS011;30135;47.866;-4.222;2023-04-26T07:38:22;3.45;;;1.20;;
44430;SDS011;30135;47.866;-4.222;2023-04-26T07:40:48;5.95;;;0.75;;
44430;SDS011;30135;47.866;-4.222;2023-04-26T07:43:16;4.63;;;0.90;;
44430;SDS011;30135;47.866;-4.222;2023-04-26T07:45:43;2.47;;;1.13;;
44430;SDS011;30135;47.866;-4.222;2023-04-26T07:48:09;4.82;;;0.90;;
44430;SDS011;30135;47.866;-4.222;2023-04-26T07:50:36;2.40;;;0.60;;
44430;SDS011;30135;47.866;-4.222;2023-04-26T07:53:01;13.90;;;1.10;;
44430;SDS011;30135;47.866;-4.222;2023-04-26T07:55:28;2.47;;;0.60;;
44430;SDS011;30135;47.866;-4.222;2023-04-26T07:57:54;1.73;;;0.57;;
44430;SDS011;30135;47.866;-4.222;2023-04-26T08:00:19;4.18;;;0.60;;
44430;SDS011;30135;47.866;-4.222;2023-04-26T08:02:48;9.98;;;0.90;;
44430;SDS011;30135;47.866;-4.222;2023-04-26T08:05:14;4.68;;;0.60;;
44430;SDS011;30135;47.866;-4.222;2023-04-26T08:07:41;2.65;;;0.70;;
44430;SDS011;30135;47.866;-4.222;2023-04-26T08:10:07;9.02;;;0.73;;
44430;SDS011;30135;47.866;-4.222;2023-04-26T08:12:36;7.47;;;1.13;;
44430;SDS011;30135;47.866;-4.222;2023-04-26T08:15:03;9.52;;;1.00;;
44430;SDS011;30135;47.866;-4.222;2023-04-26T08:17:30;3.28;;;0.80;;
44430;SDS011;30135;47.866;-4.222;2023-04-26T08:19:57;4.63;;;1.05;;
44430;SDS011;30135;47.866;-4.222;2023-04-26T08:22:23;2.28;;;0.57;;
44430;SDS011;30135;47.866;-4.222;2023-04-26T08:24:50;4.88;;;0.90;;
44430;SDS011;30135;47.866;-4.222;2023-04-26T08:27:25;16.00;;;1.80;;
44430;SDS011;30135;47.866;-4.222;2023-04-26T08:29:52;13.00;;;1.02;;
44430;SDS011;30135;47.866;-4.222;2023-04-26T08:32:18;1.30;;;0.45;;
44430;SDS011;30135;47.866;-4.222;2023-04-26T08:34:44;4.60;;;0.57;;
44430;SDS011;30135;47.866;-4.222;2023-04-26T08:37:10;5.38;;;0.50;;
44430;SDS011;30135;47.866;-4.222;2023-04-26T08:39:36;4.85;;;0.40;;
44430;SDS011;30135;47.866;-4.222;2023-04-26T08:42:04;1.02;;;0.50;;
44430;SDS011;30135;47.866;-4.222;2023-04-26T08:44:37;3.17;;;0.80;;
44430;SDS011;30135;47.866;-4.222;2023-04-26T08:47:17;2.05;;;0.50;;
44430;SDS011;30135;47.866;-4.222;2023-04-26T08:49:56;4.57;;;0.63;;
44430;SDS011;30135;47.866;-4.222;2023-04-26T08:52:28;3.78;;;0.45;;
44430;SDS011;30135;47.866;-4.222;2023-04-26T08:54:56;2.75;;;0.43;;
44430;SDS011;30135;47.866;-4.222;2023-04-26T08:57:23;1.98;;;0.68;;
44430;SDS011;30135;47.866;-4.222;2023-04-26T08:59:50;2.17;;;0.40;;
44430;SDS011;30135;47.866;-4.222;2023-04-26T09:02:21;3.47;;;0.90;;
44430;SDS011;30135;47.866;-4.222;2023-04-26T09:04:48;5.68;;;0.85;;
44430;SDS011;30135;47.866;-4.222;2023-04-26T09:07:19;5.00;;;1.25;;
44430;SDS011;30135;47.866;-4.222;2023-04-26T09:09:52;5.63;;;1.17;;
44430;SDS011;30135;47.866;-4.222;2023-04-26T09:12:22;6.57;;;0.77;;
44430;SDS011;30135;47.866;-4.222;2023-04-26T09:14:48;3.97;;;0.70;;
44430;SDS011;30135;47.866;-4.222;2023-04-26T09:17:24;3.50;;;0.75;;
44430;SDS011;30135;47.866;-4.222;2023-04-26T09:19:56;9.70;;;1.50;;
44430;SDS011;30135;47.866;-4.222;2023-04-26T09:22:34;7.03;;;1.25;;
44430;SDS011;30135;47.866;-4.222;2023-04-26T09:25:04;7.40;;;0.65;;
44430;SDS011;30135;47.866;-4.222;2023-04-26T09:27:37;1.65;;;0.60;;
44430;SDS011;30135;47.866;-4.222;2023-04-26T09:40:33;3.55;;;0.43;;
44430;SDS011;30135;47.866;-4.222;2023-04-26T09:45:39;5.50;;;0.90;;
44430;SDS011;30135;47.866;-4.222;2023-04-26T09:50:52;2.97;;;1.42;;
44430;SDS011;30135;47.866;-4.222;2023-04-26T09:53:39;4.35;;;0.40;;
44430;SDS011;30135;47.866;-4.222;2023-04-26T09:56:17;2.78;;;0.60;;
44430;SDS011;30135;47.866;-4.222;2023-04-26T09:58:55;2.75;;;0.65;;
44430;SDS011;30135;47.866;-4.222;2023-04-26T10:03:53;4.22;;;1.13;;
44430;SDS011;30135;47.866;-4.222;2023-04-26T10:06:26;6.65;;;0.60;;
44430;SDS011;30135;47.866;-4.222;2023-04-26T10:08:53;2.88;;;0.77;;
44430;SDS011;30135;47.866;-4.222;2023-04-26T10:11:20;7.35;;;2.30;;
44430;SDS011;30135;47.866;-4.222;2023-04-26T10:13:47;6.28;;;0.73;;
44430;SDS011;30135;47.866;-4.222;2023-04-26T10:16:15;4.03;;;0.90;;
44430;SDS011;30135;47.866;-4.222;2023-04-26T10:18:41;4.65;;;0.88;;
44430;SDS011;30135;47.866;-4.222;2023-04-26T10:21:11;6.07;;;1.58;;
44430;SDS011;30135;47.866;-4.222;2023-04-26T10:23:44;4.57;;;1.55;;
44430;SDS011;30135;47.866;-4.222;2023-04-26T10:29:25;10.32;;;1.20;;
44430;SDS011;30135;47.866;-4.222;2023-04-26T10:32:17;6.25;;;0.95;;
44430;SDS011;30135;47.866;-4.222;2023-04-26T10:34:44;5.05;;;0.88;;
44430;SDS011;30135;47.866;-4.222;2023-04-26T10:40:29;3.75;;;0.93;;
44430;SDS011;30135;47.866;-4.222;2023-04-26T10:45:42;4.72;;;0.90;;
44430;SDS011;30135;47.866;-4.222;2023-04-26T10:48:19;6.40;;;1.02;;
44430;SDS011;30135;47.866;-4.222;2023-04-26T10:53:24;10.20;;;1.00;;
44430;SDS011;30135;47.866;-4.222;2023-04-26T10:55:50;7.53;;;1.15;;
44430;SDS011;30135;47.866;-4.222;2023-04-26T11:03:42;10.55;;;1.63;;
44430;SDS011;30135;47.866;-4.222;2023-04-26T11:06:50;10.30;;;0.98;;
44430;SDS011;30135;47.866;-4.222;2023-04-26T11:12:13;6.28;;;1.55;;
44430;SDS011;30135;47.866;-4.222;2023-04-26T11:14:43;10.13;;;2.25;;
44430;SDS011;30135;47.866;-4.222;2023-04-26T11:17:10;6.78;;;1.42;;
44430;SDS011;30135;47.866;-4.222;2023-04-26T11:19:37;12.15;;;1.35;;
44430;SDS011;30135;47.866;-4.222;2023-04-26T11:22:05;11.25;;;1.40;;
44430;SDS011;30135;47.866;-4.222;2023-04-26T11:24:33;7.05;;;1.35;;
44430;SDS011;30135;47.866;-4.222;2023-04-26T11:27:08;7.78;;;1.35;;
44430;SDS011;30135;47.866;-4.222;2023-04-26T11:29:35;11.85;;;1.45;;
44430;SDS011;30135;47.866;-4.222;2023-04-26T11:32:02;10.63;;;2.05;;
44430;SDS011;30135;47.866;-4.222;2023-04-26T11:34:32;9.23;;;1.45;;
44430;SDS011;30135;47.866;-4.222;2023-04-26T11:37:03;7.18;;;1.35;;
44430;SDS011;30135;47.866;-4.222;2023-04-26T11:39:31;9.00;;;1.52;;
44430;SDS011;30135;47.866;-4.222;2023-04-26T11:42:04;10.57;;;2.88;;
44430;SDS011;30135;47.866;-4.222;2023-04-26T11:44:35;9.95;;;2.15;;
44430;SDS011;30135;47.866;-4.222;2023-04-26T11:47:02;7.40;;;1.55;;
44430;SDS011;30135;47.866;-4.222;2023-04-26T11:49:30;3.75;;;1.05;;
44430;SDS011;30135;47.866;-4.222;2023-04-26T11:51:58;7.00;;;1.05;;
44430;SDS011;30135;47.866;-4.222;2023-04-26T11:54:29;8.15;;;2.13;;
44430;SDS011;30135;47.866;-4.222;2023-04-26T11:56:57;5.15;;;1.08;;
44430;SDS011;30135;47.866;-4.222;2023-04-26T11:59:24;4.55;;;1.00;;
44430;SDS011;30135;47.866;-4.222;2023-04-26T12:01:51;1.95;;;0.65;;
44430;SDS011;30135;47.866;-4.222;2023-04-26T12:04:17;4.15;;;1.08;;
44430;SDS011;30135;47.866;-4.222;2023-04-26T12:06:44;4.53;;;0.93;;
44430;SDS011;30135;47.866;-4.222;2023-04-26T12:09:11;5.38;;;0.85;;
44430;SDS011;30135;47.866;-4.222;2023-04-26T12:11:38;3.17;;;1.27;;
44430;SDS011;30135;47.866;-4.222;2023-04-26T12:14:04;8.07;;;1.20;;
44430;SDS011;30135;47.866;-4.222;2023-04-26T12:16:34;8.55;;;0.75;;
44430;SDS011;30135;47.866;-4.222;2023-04-26T12:19:03;2.33;;;0.73;;
44430;SDS011;30135;47.866;-4.222;2023-04-26T12:21:40;1.92;;;0.57;;
44430;SDS011;30135;47.866;-4.222;2023-04-26T12:24:20;3.53;;;0.88;;
44430;SDS011;30135;47.866;-4.222;2023-04-26T12:26:50;3.00;;;0.77;;
44430;SDS011;30135;47.866;-4.222;2023-04-26T12:29:16;5.03;;;1.55;;
44430;SDS011;30135;47.866;-4.222;2023-04-26T12:31:42;3.25;;;1.10;;
44430;SDS011;30135;47.866;-4.222;2023-04-26T12:34:08;1.90;;;0.88;;
44430;SDS011;30135;47.866;-4.222;2023-04-26T12:36:34;5.90;;;1.10;;
44430;SDS011;30135;47.866;-4.222;2023-04-26T12:39:00;2.85;;;0.43;;
44430;SDS011;30135;47.866;-4.222;2023-04-26T12:41:29;4.88;;;1.30;;
44430;SDS011;30135;47.866;-4.222;2023-04-26T12:43:55;2.63;;;0.57;;
44430;SDS011;30135;47.866;-4.222;2023-04-26T12:46:21;4.22;;;0.63;;
44430;SDS011;30135;47.866;-4.222;2023-04-26T12:48:51;8.68;;;1.30;;
44430;SDS011;30135;47.866;-4.222;2023-04-26T12:51:17;2.13;;;0.50;;
44430;SDS011;30135;47.866;-4.222;2023-04-26T12:53:43;4.15;;;0.55;;
44430;SDS011;30135;47.866;-4.222;2023-04-26T12:56:09;3.20;;;0.95;;
44430;SDS011;30135;47.866;-4.222;2023-04-26T12:58:35;1.55;;;0.40;;
44430;SDS011;30135;47.866;-4.222;2023-04-26T13:01:01;2.33;;;0.63;;
44430;SDS011;30135;47.866;-4.222;2023-04-26T13:03:27;2.63;;;0.82;;
44430;SDS011;30135;47.866;-4.222;2023-04-26T13:05:53;2.05;;;0.40;;
44430;SDS011;30135;47.866;-4.222;2023-04-26T13:08:20;3.63;;;0.68;;
44430;SDS011;30135;47.866;-4.222;2023-04-26T13:10:46;2.58;;;0.85;;
44430;SDS011;30135;47.866;-4.222;2023-04-26T13:13:12;4.68;;;1.10;;
44430;SDS011;30135;47.866;-4.222;2023-04-26T13:15:38;2.20;;;0.68;;
44430;SDS011;30135;47.866;-4.222;2023-04-26T13:18:04;1.35;;;0.88;;
44430;SDS011;30135;47.866;-4.222;2023-04-26T13:20:30;2.92;;;0.80;;
44430;SDS011;30135;47.866;-4.222;2023-04-26T13:22:56;1.35;;;0.30;;
44430;SDS011;30135;47.866;-4.222;2023-04-26T13:25:22;2.58;;;0.95;;
44430;SDS011;30135;47.866;-4.222;2023-04-26T13:27:55;0.95;;;0.38;;
44430;SDS011;30135;47.866;-4.222;2023-04-26T13:30:21;2.22;;;0.60;;
44430;SDS011;30135;47.866;-4.222;2023-04-26T13:32:47;4.13;;;0.77;;
44430;SDS011;30135;47.866;-4.222;2023-04-26T13:35:13;6.00;;;0.50;;
44430;SDS011;30135;47.866;-4.222;2023-04-26T13:37:39;2.63;;;0.47;;
44430;SDS011;30135;47.866;-4.222;2023-04-26T13:40:06;4.57;;;0.50;;
44430;SDS011;30135;47.866;-4.222;2023-04-26T13:42:35;2.57;;;0.60;;
44430;SDS011;30135;47.866;-4.222;2023-04-26T13:45:02;3.83;;;0.65;;
44430;SDS011;30135;47.866;-4.222;2023-04-26T13:47:33;3.35;;;0.80;;
44430;SDS011;30135;47.866;-4.222;2023-04-26T13:49:59;2.30;;;0.60;;
44430;SDS011;30135;47.866;-4.222;2023-04-26T13:52:29;2.90;;;0.50;;
44430;SDS011;30135;47.866;-4.222;2023-04-26T13:54:55;1.92;;;0.52;;
44430;SDS011;30135;47.866;-4.222;2023-04-26T13:57:21;2.05;;;0.60;;
44430;SDS011;30135;47.866;-4.222;2023-04-26T13:59:47;5.85;;;0.68;;
44430;SDS011;30135;47.866;-4.222;2023-04-26T14:02:13;2.38;;;0.40;;
44430;SDS011;30135;47.866;-4.222;2023-04-26T14:04:39;1.75;;;0.20;;
44430;SDS011;30135;47.866;-4.222;2023-04-26T14:07:05;1.08;;;0.32;;
44430;SDS011;30135;47.866;-4.222;2023-04-26T14:09:31;2.35;;;0.30;;
44430;SDS011;30135;47.866;-4.222;2023-04-26T14:11:57;1.20;;;0.43;;
44430;SDS011;30135;47.866;-4.222;2023-04-26T14:14:24;2.25;;;0.40;;
44430;SDS011;30135;47.866;-4.222;2023-04-26T14:16:50;4.57;;;0.40;;
44430;SDS011;30135;47.866;-4.222;2023-04-26T14:19:16;2.05;;;0.77;;
44430;SDS011;30135;47.866;-4.222;2023-04-26T14:21:45;1.38;;;0.30;;
44430;SDS011;30135;47.866;-4.222;2023-04-26T14:24:11;1.52;;;0.40;;
44430;SDS011;30135;47.866;-4.222;2023-04-26T14:26:37;3.40;;;0.40;;
44430;SDS011;30135;47.866;-4.222;2023-04-26T14:29:03;3.55;;;0.50;;
44430;SDS011;30135;47.866;-4.222;2023-04-26T14:31:29;3.15;;;0.20;;
44430;SDS011;30135;47.866;-4.222;2023-04-26T14:33:56;3.38;;;0.40;;
44430;SDS011;30135;47.866;-4.222;2023-04-26T14:36:22;1.63;;;0.50;;
44430;SDS011;30135;47.866;-4.222;2023-04-26T14:38:48;3.20;;;0.52;;
44430;SDS011;30135;47.866;-4.222;2023-04-26T14:41:15;1.77;;;0.38;;
44430;SDS011;30135;47.866;-4.222;2023-04-26T14:43:43;2.75;;;0.65;;
44430;SDS011;30135;47.866;-4.222;2023-04-26T14:46:12;0.98;;;0.35;;
44430;SDS011;30135;47.866;-4.222;2023-04-26T14:48:38;1.42;;;0.68;;
44430;SDS011;30135;47.866;-4.222;2023-04-26T14:51:04;1.85;;;0.60;;
44430;SDS011;30135;47.866;-4.222;2023-04-26T14:53:30;2.17;;;0.88;;
44430;SDS011;30135;47.866;-4.222;2023-04-26T14:55:57;4.38;;;1.05;;
44430;SDS011;30135;47.866;-4.222;2023-04-26T14:58:23;7.90;;;0.28;;
44430;SDS011;30135;47.866;-4.222;2023-04-26T15:00:50;1.52;;;0.47;;
44430;SDS011;30135;47.866;-4.222;2023-04-26T15:03:17;1.77;;;0.30;;
44430;SDS011;30135;47.866;-4.222;2023-04-26T15:05:44;5.85;;;0.80;;
44430;SDS011;30135;47.866;-4.222;2023-04-26T15:08:10;0.57;;;0.30;;
44430;SDS011;30135;47.866;-4.222;2023-04-26T15:10:37;1.27;;;0.22;;
44430;SDS011;30135;47.866;-4.222;2023-04-26T15:13:02;1.95;;;0.20;;
44430;SDS011;30135;47.866;-4.222;2023-04-26T15:15:28;2.72;;;0.40;;
44430;SDS011;30135;47.866;-4.222;2023-04-26T15:17:55;1.00;;;0.50;;